sensor_id;sensor_type;location;lat;lon;timestamp;pressure;altitude;pressure_sealevel;temperature;humidity
9289;BME280;4683;50.864;12.086;2022-11-20T00:01:40;98817.59;;;-4.42;100.00
9289;BME280;4683;50.864;12.086;2022-11-20T00:04:10;98816.78;;;-4.43;100.00
9289;BME280;4683;50.864;12.086;2022-11-20T00:06:41;98818.63;;;-4.45;100.00
9289;BME280;4683;50.864;12.086;2022-11-20T00:09:10;98822.03;;;-4.44;100.00
9289;BME280;4683;50.864;12.086;2022-11-20T00:11:39;98814.19;;;-4.43;100.00
9289;BME280;4683;50.864;12.086;2022-11-20T00:14:09;98816.03;;;-4.45;100.00
9289;BME280;4683;50.864;12.086;2022-11-20T00:16:37;98816.22;;;-4.48;100.00
9289;BME280;4683;50.864;12.086;2022-11-20T00:19:09;98818.03;;;-4.50;100.00
9289;BME280;4683;50.864;12.086;2022-11-20T00:21:37;98818.25;;;-4.53;100.00
9289;BME280;4683;50.864;12.086;2022-11-20T00:24:09;98817.69;;;-4.58;100.00
9289;BME280;4683;50.864;12.086;2022-11-20T00:26:37;98816.88;;;-4.58;100.00
9289;BME280;4683;50.864;12.086;2022-11-20T00:29:09;98814.31;;;-4.58;100.00
9289;BME280;4683;50.864;12.086;2022-11-20T00:31:37;98818.59;;;-4.59;100.00
9289;BME280;4683;50.864;12.086;2022-11-20T00:34:06;98812.72;;;-4.61;100.00
9289;BME280;4683;50.864;12.086;2022-11-20T00:36:35;98814.56;;;-4.63;100.00
9289;BME280;4683;50.864;12.086;2022-11-20T00:39:04;98812.91;;;-4.64;100.00
9289;BME280;4683;50.864;12.086;2022-11-20T00:41:34;98813.81;;;-4.65;100.00
9289;BME280;4683;50.864;12.086;2022-11-20T00:44:02;98812.06;;;-4.65;100.00
9289;BME280;4683;50.864;12.086;2022-11-20T00:46:31;98807.03;;;-4.66;100.00
9289;BME280;4683;50.864;12.086;2022-11-20T00:49:00;98804.47;;;-4.66;100.00
9289;BME280;4683;50.864;12.086;2022-11-20T00:51:30;98808.84;;;-4.68;100.00
9289;BME280;4683;50.864;12.086;2022-11-20T00:53:58;98804.47;;;-4.66;100.00
9289;BME280;4683;50.864;12.086;2022-11-20T00:56:28;98806.22;;;-4.67;100.00
9289;BME280;4683;50.864;12.086;2022-11-20T00:59:00;98798.75;;;-4.71;100.00
9289;BME280;4683;50.864;12.086;2022-11-20T01:01:29;98801.41;;;-4.73;100.00
9289;BME280;4683;50.864;12.086;2022-11-20T01:03:59;98808.13;;;-4.70;100.00
9289;BME280;4683;50.864;12.086;2022-11-20T01:06:29;98804.63;;;-4.69;100.00
9289;BME280;4683;50.864;12.086;2022-11-20T01:09:00;98797.94;;;-4.72;100.00
9289;BME280;4683;50.864;12.086;2022-11-20T01:11:31;98803.91;;;-4.71;100.00
9289;BME280;4683;50.864;12.086;2022-11-20T01:14:04;98802.25;;;-4.72;100.00
9289;BME280;4683;50.864;12.086;2022-11-20T01:16:35;98804.09;;;-4.74;100.00
9289;BME280;4683;50.864;12.086;2022-11-20T01:19:06;98817.03;;;-4.76;100.00
9289;BME280;4683;50.864;12.086;2022-11-20T01:21:37;98803.34;;;-4.76;100.00
9289;BME280;4683;50.864;12.086;2022-11-20T01:24:11;98807.75;;;-4.78;100.00
9289;BME280;4683;50.864;12.086;2022-11-20T01:26:44;98804.25;;;-4.77;100.00
9289;BME280;4683;50.864;12.086;2022-11-20T01:29:18;98803.63;;;-4.81;100.00
9289;BME280;4683;50.864;12.086;2022-11-20T01:31:47;98801.50;;;-4.89;100.00
9289;BME280;4683;50.864;12.086;2022-11-20T01:34:18;98802.69;;;-4.94;100.00
9289;BME280;4683;50.864;12.086;2022-11-20T01:36:49;98797.06;;;-5.01;100.00
9289;BME280;4683;50.864;12.086;2022-11-20T01:39:20;98794.31;;;-4.98;100.00
9289;BME280;4683;50.864;12.086;2022-11-20T01:41:53;98796.06;;;-4.98;100.00
9289;BME280;4683;50.864;12.086;2022-11-20T01:44:54;98794.50;;;-5.01;100.00
9289;BME280;4683;50.864;12.086;2022-11-20T01:51:17;98777.69;;;-5.06;100.00
9289;BME280;4683;50.864;12.086;2022-11-20T01:53:47;98777.69;;;-5.06;100.00
9289;BME280;4683;50.864;12.086;2022-11-20T01:56:16;98772.56;;;-5.06;100.00
9289;BME280;4683;50.864;12.086;2022-11-20T01:58:48;98774.41;;;-5.08;100.00
9289;BME280;4683;50.864;12.086;2022-11-20T02:01:19;98772.72;;;-5.10;100.00
9289;BME280;4683;50.864;12.086;2022-11-20T02:03:48;98774.66;;;-5.13;100.00
9289;BME280;4683;50.864;12.086;2022-11-20T02:06:23;98771.50;;;-5.18;100.00
9289;BME280;4683;50.864;12.086;2022-11-20T02:08:52;98773.91;;;-5.15;100.00
9289;BME280;4683;50.864;12.086;2022-11-20T02:11:21;98768.66;;;-5.14;100.00
9289;BME280;4683;50.864;12.086;2022-11-20T02:13:50;98777.41;;;-5.16;100.00
9289;BME280;4683;50.864;12.086;2022-11-20T02:16:24;98769.97;;;-5.21;100.00
9289;BME280;4683;50.864;12.086;2022-11-20T02:18:55;98772.53;;;-5.21;100.00
9289;BME280;4683;50.864;12.086;2022-11-20T02:21:32;98771.59;;;-5.20;100.00
9289;BME280;4683;50.864;12.086;2022-11-20T02:24:08;98771.50;;;-5.18;100.00
9289;BME280;4683;50.864;12.086;2022-11-20T02:26:45;98772.38;;;-5.18;100.00
9289;BME280;4683;50.864;12.086;2022-11-20T02:29:18;98761.97;;;-5.16;100.00
9289;BME280;4683;50.864;12.086;2022-11-20T02:31:47;98765.47;;;-5.17;100.00
9289;BME280;4683;50.864;12.086;2022-11-20T02:34:16;98769.03;;;-5.20;100.00
9289;BME280;4683;50.864;12.086;2022-11-20T02:36:45;98764.72;;;-5.19;100.00
9289;BME280;4683;50.864;12.086;2022-11-20T02:39:16;98769.69;;;-5.16;100.00
9289;BME280;4683;50.864;12.086;2022-11-20T02:41:44;98772.25;;;-5.16;100.00
9289;BME280;4683;50.864;12.086;2022-11-20T02:44:12;98768.13;;;-5.19;100.00
9289;BME280;4683;50.864;12.086;2022-11-20T02:46:41;98767.22;;;-5.18;100.00
9289;BME280;4683;50.864;12.086;2022-11-20T02:49:09;98759.41;;;-5.16;100.00
9289;BME280;4683;50.864;12.086;2022-11-20T02:51:37;98761.81;;;-5.13;100.00
9289;BME280;4683;50.864;12.086;2022-11-20T02:54:06;98763.25;;;-5.09;100.00
9289;BME280;4683;50.864;12.086;2022-11-20T02:56:38;98765.09;;;-5.11;100.00
9289;BME280;4683;50.864;12.086;2022-11-20T02:59:06;98766.03;;;-5.12;100.00
9289;BME280;4683;50.864;12.086;2022-11-20T03:01:34;98764.56;;;-5.16;100.00
9289;BME280;4683;50.864;12.086;2022-11-20T03:04:03;98767.28;;;-5.19;100.00
9289;BME280;4683;50.864;12.086;2022-11-20T03:06:32;98763.34;;;-5.25;100.00
9289;BME280;4683;50.864;12.086;2022-11-20T03:09:00;98757.63;;;-5.30;100.00
9289;BME280;4683;50.864;12.086;2022-11-20T03:11:30;98751.75;;;-5.32;100.00
9289;BME280;4683;50.864;12.086;2022-11-20T03:14:02;98756.06;;;-5.32;100.00
9289;BME280;4683;50.864;12.086;2022-11-20T03:16:32;98744.88;;;-5.31;100.00
9289;BME280;4683;50.864;12.086;2022-11-20T03:19:01;98738.28;;;-5.36;100.00
9289;BME280;4683;50.864;12.086;2022-11-20T03:21:29;98730.91;;;-5.42;100.00
9289;BME280;4683;50.864;12.086;2022-11-20T03:23:57;98731.09;;;-5.45;100.00
9289;BME280;4683;50.864;12.086;2022-11-20T03:26:26;98735.47;;;-5.47;100.00
9289;BME280;4683;50.864;12.086;2022-11-20T03:28:59;98732.91;;;-5.47;100.00
9289;BME280;4683;50.864;12.086;2022-11-20T03:31:30;98729.25;;;-5.43;100.00
9289;BME280;4683;50.864;12.086;2022-11-20T03:33:58;98735.78;;;-5.37;100.00
9289;BME280;4683;50.864;12.086;2022-11-20T03:36:27;98725.75;;;-5.42;100.00
9289;BME280;4683;50.864;12.086;2022-11-20T03:38:57;98731.81;;;-5.43;100.00
9289;BME280;4683;50.864;12.086;2022-11-20T03:41:28;98728.59;;;-5.46;100.00
9289;BME280;4683;50.864;12.086;2022-11-20T03:43:59;98726.50;;;-5.40;100.00
9289;BME280;4683;50.864;12.086;2022-11-20T03:46:29;98730.28;;;-5.31;100.00
9289;BME280;4683;50.864;12.086;2022-11-20T03:48:57;98732.00;;;-5.31;100.00
9289;BME280;4683;50.864;12.086;2022-11-20T03:51:28;98733.59;;;-5.29;100.00
9289;BME280;4683;50.864;12.086;2022-11-20T03:53:58;98729.44;;;-5.31;100.00
9289;BME280;4683;50.864;12.086;2022-11-20T03:56:34;98728.81;;;-5.35;100.00
9289;BME280;4683;50.864;12.086;2022-11-20T03:59:05;98726.25;;;-5.35;100.00
9289;BME280;4683;50.864;12.086;2022-11-20T04:01:36;98724.50;;;-5.34;100.00
9289;BME280;4683;50.864;12.086;2022-11-20T04:04:05;98727.06;;;-5.34;100.00
9289;BME280;4683;50.864;12.086;2022-11-20T04:06:36;98715.41;;;-5.40;100.00
9289;BME280;4683;50.864;12.086;2022-11-20T04:09:08;98714.75;;;-5.44;100.00
9289;BME280;4683;50.864;12.086;2022-11-20T04:11:39;98719.50;;;-5.52;100.00
9289;BME280;4683;50.864;12.086;2022-11-20T04:14:15;98714.72;;;-5.58;100.00
9289;BME280;4683;50.864;12.086;2022-11-20T04:16:44;98718.94;;;-5.57;100.00
9289;BME280;4683;50.864;12.086;2022-11-20T04:19:14;98712.16;;;-5.58;100.00
9289;BME280;4683;50.864;12.086;2022-11-20T04:21:43;98712.22;;;-5.59;100.00
9289;BME280;4683;50.864;12.086;2022-11-20T04:24:12;98715.31;;;-5.69;100.00
9289;BME280;4683;50.864;12.086;2022-11-20T04:26:43;98708.97;;;-5.77;100.00
9289;BME280;4683;50.864;12.086;2022-11-20T04:29:13;98710.81;;;-5.79;100.00
9289;BME280;4683;50.864;12.086;2022-11-20T04:31:41;98710.97;;;-5.82;100.00
9289;BME280;4683;50.864;12.086;2022-11-20T04:34:13;98712.63;;;-5.81;100.00
9289;BME280;4683;50.864;12.086;2022-11-20T04:36:41;98714.09;;;-5.77;100.00
9289;BME280;4683;50.864;12.086;2022-11-20T04:39:13;98713.94;;;-5.74;100.00
9289;BME280;4683;50.864;12.086;2022-11-20T04:41:44;98710.13;;;-5.67;100.00
9289;BME280;4683;50.864;12.086;2022-11-20T04:44:14;98710.75;;;-5.64;100.00
9289;BME280;4683;50.864;12.086;2022-11-20T04:46:43;98703.81;;;-5.62;100.00
9289;BME280;4683;50.864;12.086;2022-11-20T04:49:12;98700.31;;;-5.61;100.00
9289;BME280;4683;50.864;12.086;2022-11-20T04:51:40;98706.28;;;-5.60;100.00
9289;BME280;4683;50.864;12.086;2022-11-20T04:54:09;98713.91;;;-5.58;100.00
9289;BME280;4683;50.864;12.086;2022-11-20T04:56:38;98711.25;;;-5.57;100.00
9289;BME280;4683;50.864;12.086;2022-11-20T04:59:08;98714.47;;;-5.53;100.00
9289;BME280;4683;50.864;12.086;2022-11-20T05:01:38;98711.81;;;-5.52;100.00
9289;BME280;4683;50.864;12.086;2022-11-20T05:04:06;98707.59;;;-5.53;100.00
9289;BME280;4683;50.864;12.086;2022-11-20T05:06:37;98707.66;;;-5.54;100.00
9289;BME280;4683;50.864;12.086;2022-11-20T05:09:06;98703.38;;;-5.54;100.00
9289;BME280;4683;50.864;12.086;2022-11-20T05:11:34;98707.91;;;-5.59;100.00
9289;BME280;4683;50.864;12.086;2022-11-20T05:14:02;98703.16;;;-5.65;100.00
9289;BME280;4683;50.864;12.086;2022-11-20T05:16:30;98698.44;;;-5.73;100.00
9289;BME280;4683;50.864;12.086;2022-11-20T05:19:00;98695.50;;;-5.81;100.00
9289;BME280;4683;50.864;12.086;2022-11-20T05:21:30;98692.53;;;-5.89;100.00
9289;BME280;4683;50.864;12.086;2022-11-20T05:23:59;98702.19;;;-5.93;100.00
9289;BME280;4683;50.864;12.086;2022-11-20T05:26:27;98703.09;;;-5.94;100.00
9289;BME280;4683;50.864;12.086;2022-11-20T05:28:55;98703.09;;;-5.94;100.00
9289;BME280;4683;50.864;12.086;2022-11-20T05:31:25;98696.91;;;-5.91;100.00
9289;BME280;4683;50.864;12.086;2022-11-20T05:33:54;98696.03;;;-5.90;100.00
9289;BME280;4683;50.864;12.086;2022-11-20T05:36:25;98706.03;;;-5.85;100.00
9289;BME280;4683;50.864;12.086;2022-11-20T05:38:53;98705.69;;;-5.79;100.00
9289;BME280;4683;50.864;12.086;2022-11-20T05:41:21;98698.91;;;-5.80;100.00
9289;BME280;4683;50.864;12.086;2022-11-20T05:43:51;98697.41;;;-5.84;100.00
9289;BME280;4683;50.864;12.086;2022-11-20T05:46:20;98706.19;;;-5.89;100.00
9289;BME280;4683;50.864;12.086;2022-11-20T05:48:49;98701.44;;;-5.95;100.00
9289;BME280;4683;50.864;12.086;2022-11-20T05:51:19;98696.63;;;-6.01;100.00
9289;BME280;4683;50.864;12.086;2022-11-20T05:53:49;98699.56;;;-6.07;100.00
9289;BME280;4683;50.864;12.086;2022-11-20T05:56:19;98700.78;;;-6.14;100.00
9289;BME280;4683;50.864;12.086;2022-11-20T05:58:47;98692.38;;;-6.16;100.00
9289;BME280;4683;50.864;12.086;2022-11-20T06:01:18;98689.53;;;-6.11;100.00
9289;BME280;4683;50.864;12.086;2022-11-20T06:03:47;98695.34;;;-6.08;100.00
9289;BME280;4683;50.864;12.086;2022-11-20T06:06:18;98694.25;;;-6.04;100.00
9289;BME280;4683;50.864;12.086;2022-11-20T06:08:48;98689.84;;;-6.02;100.00
9289;BME280;4683;50.864;12.086;2022-11-20T06:11:17;98694.00;;;-5.99;100.00
9289;BME280;4683;50.864;12.086;2022-11-20T06:13:46;98687.38;;;-6.03;100.00
9289;BME280;4683;50.864;12.086;2022-11-20T06:16:19;98685.13;;;-6.09;100.00
9289;BME280;4683;50.864;12.086;2022-11-20T06:18:48;98682.09;;;-6.16;100.00
9289;BME280;4683;50.864;12.086;2022-11-20T06:21:19;98692.53;;;-6.19;100.00
9289;BME280;4683;50.864;12.086;2022-11-20T06:23:50;98685.75;;;-6.20;100.00
9289;BME280;4683;50.864;12.086;2022-11-20T06:26:20;98681.53;;;-6.21;100.00
9289;BME280;4683;50.864;12.086;2022-11-20T06:28:49;98689.25;;;-6.21;100.00
9289;BME280;4683;50.864;12.086;2022-11-20T06:31:21;98679.13;;;-6.24;100.00
9289;BME280;4683;50.864;12.086;2022-11-20T06:33:51;98697.09;;;-6.24;100.00
9289;BME280;4683;50.864;12.086;2022-11-20T06:36:21;98696.19;;;-6.23;100.00
9289;BME280;4683;50.864;12.086;2022-11-20T06:38:51;98696.75;;;-6.18;100.00
9289;BME280;4683;50.864;12.086;2022-11-20T06:41:21;98703.47;;;-6.16;100.00
9289;BME280;4683;50.864;12.086;2022-11-20T06:43:50;98704.94;;;-6.11;100.00
9289;BME280;4683;50.864;12.086;2022-11-20T06:46:20;98712.75;;;-6.13;100.00
9289;BME280;4683;50.864;12.086;2022-11-20T06:48:49;98716.38;;;-6.17;100.00
9289;BME280;4683;50.864;12.086;2022-11-20T06:51:18;98711.59;;;-6.39;100.00
9289;BME280;4683;50.864;12.086;2022-11-20T06:53:46;98714.72;;;-6.50;100.00
9289;BME280;4683;50.864;12.086;2022-11-20T06:56:16;98706.13;;;-6.49;100.00
9289;BME280;4683;50.864;12.086;2022-11-20T06:58:44;98705.63;;;-6.24;100.00
9289;BME280;4683;50.864;12.086;2022-11-20T07:01:14;98698.41;;;-6.17;100.00
9289;BME280;4683;50.864;12.086;2022-11-20T07:03:48;98688.06;;;-6.16;100.00
9289;BME280;4683;50.864;12.086;2022-11-20T07:06:17;98687.41;;;-6.19;100.00
9289;BME280;4683;50.864;12.086;2022-11-20T07:08:45;98689.25;;;-6.21;100.00
9289;BME280;4683;50.864;12.086;2022-11-20T07:11:15;98688.31;;;-6.20;100.00
9289;BME280;4683;50.864;12.086;2022-11-20T07:13:43;98695.00;;;-6.18;100.00
9289;BME280;4683;50.864;12.086;2022-11-20T07:16:12;98689.88;;;-6.18;100.00
9289;BME280;4683;50.864;12.086;2022-11-20T07:18:40;98697.50;;;-6.16;100.00
9289;BME280;4683;50.864;12.086;2022-11-20T07:21:09;98686.88;;;-6.10;100.00
9289;BME280;4683;50.864;12.086;2022-11-20T07:23:41;98694.03;;;-6.15;100.00
9289;BME280;4683;50.864;12.086;2022-11-20T07:26:11;98698.16;;;-6.28;100.00
9289;BME280;4683;50.864;12.086;2022-11-20T07:28:43;98701.84;;;-6.48;100.00
9289;BME280;4683;50.864;12.086;2022-11-20T07:31:13;98695.78;;;-6.47;100.00
9289;BME280;4683;50.864;12.086;2022-11-20T07:33:41;98699.03;;;-6.44;100.00
9289;BME280;4683;50.864;12.086;2022-11-20T07:36:09;98691.75;;;-6.35;100.00
9289;BME280;4683;50.864;12.086;2022-11-20T07:38:39;98690.88;;;-6.20;100.00
9289;BME280;4683;50.864;12.086;2022-11-20T07:41:07;98686.88;;;-6.10;100.00
9289;BME280;4683;50.864;12.086;2022-11-20T07:43:36;98693.16;;;-6.00;100.00
9289;BME280;4683;50.864;12.086;2022-11-20T07:46:05;98685.72;;;-6.04;100.00
9289;BME280;4683;50.864;12.086;2022-11-20T07:48:34;98674.09;;;-5.81;100.00
9289;BME280;4683;50.864;12.086;2022-11-20T07:51:03;98665.56;;;-5.52;100.00
9289;BME280;4683;50.864;12.086;2022-11-20T07:53:31;98673.94;;;-5.34;100.00
9289;BME280;4683;50.864;12.086;2022-11-20T07:56:00;98667.16;;;-5.21;100.00
9289;BME280;4683;50.864;12.086;2022-11-20T07:58:31;98665.13;;;-5.01;100.00
9289;BME280;4683;50.864;12.086;2022-11-20T08:01:05;98660.16;;;-4.90;100.00
9289;BME280;4683;50.864;12.086;2022-11-20T08:03:33;98665.47;;;-4.93;100.00
9289;BME280;4683;50.864;12.086;2022-11-20T08:06:04;98655.47;;;-4.83;100.00
9289;BME280;4683;50.864;12.086;2022-11-20T08:08:33;98656.13;;;-5.08;100.00
9289;BME280;4683;50.864;12.086;2022-11-20T08:11:02;98660.38;;;-5.22;100.00
9289;BME280;4683;50.864;12.086;2022-11-20T08:13:47;98670.16;;;-5.14;100.00
9289;BME280;4683;50.864;12.086;2022-11-20T08:16:45;98657.56;;;-5.04;100.00
9289;BME280;4683;50.864;12.086;2022-11-20T08:19:15;98664.91;;;-4.84;100.00
9289;BME280;4683;50.864;12.086;2022-11-20T08:21:43;98666.00;;;-4.74;100.00
9289;BME280;4683;50.864;12.086;2022-11-20T08:24:12;98668.00;;;-4.65;100.00
9289;BME280;4683;50.864;12.086;2022-11-20T08:26:41;98662.22;;;-4.54;100.00
9289;BME280;4683;50.864;12.086;2022-11-20T08:29:09;98669.31;;;-4.30;100.00
9289;BME280;4683;50.864;12.086;2022-11-20T08:31:37;98672.22;;;-4.22;100.00
9289;BME280;4683;50.864;12.086;2022-11-20T08:34:07;98672.19;;;-4.35;100.00
9289;BME280;4683;50.864;12.086;2022-11-20T08:36:35;98667.44;;;-4.28;100.00
9289;BME280;4683;50.864;12.086;2022-11-20T08:39:04;98655.34;;;-4.14;100.00
9289;BME280;4683;50.864;12.086;2022-11-20T08:41:32;98656.66;;;-3.94;100.00
9289;BME280;4683;50.864;12.086;2022-11-20T08:44:03;98662.50;;;-3.92;100.00
9289;BME280;4683;50.864;12.086;2022-11-20T08:46:35;98685.34;;;-4.00;100.00
9289;BME280;4683;50.864;12.086;2022-11-20T08:49:06;98682.06;;;-4.02;100.00
9289;BME280;4683;50.864;12.086;2022-11-20T08:51:35;98672.53;;;-3.87;100.00
9289;BME280;4683;50.864;12.086;2022-11-20T08:54:05;98667.22;;;-3.46;100.00
9289;BME280;4683;50.864;12.086;2022-11-20T08:56:34;98668.97;;;-3.34;100.00
9289;BME280;4683;50.864;12.086;2022-11-20T08:59:02;98671.13;;;-3.27;100.00
9289;BME280;4683;50.864;12.086;2022-11-20T09:01:30;98654.84;;;-3.15;100.00
9289;BME280;4683;50.864;12.086;2022-11-20T09:04:03;98661.44;;;-2.98;100.00
9289;BME280;4683;50.864;12.086;2022-11-20T09:06:33;98652.13;;;-2.88;100.00
9289;BME280;4683;50.864;12.086;2022-11-20T09:09:01;98668.88;;;-2.94;100.00
9289;BME280;4683;50.864;12.086;2022-11-20T09:11:30;98666.59;;;-2.98;100.00
9289;BME280;4683;50.864;12.086;2022-11-20T09:13:58;98659.56;;;-2.84;100.00
9289;BME280;4683;50.864;12.086;2022-11-20T09:16:27;98664.22;;;-2.52;100.00
9289;BME280;4683;50.864;12.086;2022-11-20T09:18:56;98664.97;;;-2.26;100.00
9289;BME280;4683;50.864;12.086;2022-11-20T09:21:24;98652.91;;;-2.14;100.00
9289;BME280;4683;50.864;12.086;2022-11-20T09:23:54;98661.31;;;-2.23;100.00
9289;BME280;4683;50.864;12.086;2022-11-20T09:26:22;98663.06;;;-2.00;100.00
9289;BME280;4683;50.864;12.086;2022-11-20T09:28:50;98659.16;;;-1.82;100.00
9289;BME280;4683;50.864;12.086;2022-11-20T09:31:23;98663.81;;;-1.63;100.00
9289;BME280;4683;50.864;12.086;2022-11-20T09:33:55;98660.22;;;-1.73;100.00
9289;BME280;4683;50.864;12.086;2022-11-20T09:36:23;98665.50;;;-1.74;100.00
9289;BME280;4683;50.864;12.086;2022-11-20T09:38:52;98669.94;;;-1.88;100.00
9289;BME280;4683;50.864;12.086;2022-11-20T09:42:04;98650.19;;;-1.89;100.00
9289;BME280;4683;50.864;12.086;2022-11-20T09:44:55;98653.75;;;-1.79;100.00
9289;BME280;4683;50.864;12.086;2022-11-20T09:47:41;98647.47;;;-1.63;100.00
9289;BME280;4683;50.864;12.086;2022-11-20T09:50:25;98643.50;;;-1.45;100.00
9289;BME280;4683;50.864;12.086;2022-11-20T09:53:15;98643.41;;;-1.21;100.00
9289;BME280;4683;50.864;12.086;2022-11-20T09:55:47;98641.06;;;-1.13;100.00
9289;BME280;4683;50.864;12.086;2022-11-20T09:58:25;98645.88;;;-1.19;100.00
9289;BME280;4683;50.864;12.086;2022-11-20T10:01:08;98647.50;;;-1.18;100.00
9289;BME280;4683;50.864;12.086;2022-11-20T10:03:49;98645.28;;;-1.00;100.00
9289;BME280;4683;50.864;12.086;2022-11-20T10:06:28;98643.75;;;-0.92;100.00
9289;BME280;4683;50.864;12.086;2022-11-20T10:09:08;98639.41;;;-0.80;100.00
9289;BME280;4683;50.864;12.086;2022-11-20T10:11:59;98638.66;;;-0.60;100.00
9289;BME280;4683;50.864;12.086;2022-11-20T10:14:42;98637.88;;;-0.28;100.00
9289;BME280;4683;50.864;12.086;2022-11-20T10:17:27;98617.41;;;-0.31;100.00
9289;BME280;4683;50.864;12.086;2022-11-20T10:20:16;98616.59;;;-0.32;100.00
9289;BME280;4683;50.864;12.086;2022-11-20T10:23:07;98610.38;;;0.13;100.00
9289;BME280;4683;50.864;12.086;2022-11-20T10:25:49;98608.03;;;0.31;100.00
9289;BME280;4683;50.864;12.086;2022-11-20T10:28:39;98604.75;;;0.29;100.00
9289;BME280;4683;50.864;12.086;2022-11-20T10:31:27;98603.22;;;0.47;100.00
9289;BME280;4683;50.864;12.086;2022-11-20T10:33:58;98602.59;;;0.55;100.00
9289;BME280;4683;50.864;12.086;2022-11-20T10:36:34;98605.88;;;0.36;100.00
9289;BME280;4683;50.864;12.086;2022-11-20T10:39:11;98602.03;;;0.51;100.00
9289;BME280;4683;50.864;12.086;2022-11-20T10:41:43;98603.56;;;0.63;100.00
9289;BME280;4683;50.864;12.086;2022-11-20T10:44:19;98596.44;;;0.56;100.00
9289;BME280;4683;50.864;12.086;2022-11-20T10:47:14;98600.19;;;0.72;100.00
9289;BME280;4683;50.864;12.086;2022-11-20T10:49:45;98608.84;;;0.73;100.00
9289;BME280;4683;50.864;12.086;2022-11-20T10:52:23;98598.16;;;0.76;100.00
9289;BME280;4683;50.864;12.086;2022-11-20T10:55:04;98604.78;;;0.90;100.00
9289;BME280;4683;50.864;12.086;2022-11-20T10:57:51;98600.66;;;0.78;100.00
9289;BME280;4683;50.864;12.086;2022-11-20T11:00:22;98597.16;;;0.67;100.00
9289;BME280;4683;50.864;12.086;2022-11-20T11:02:52;98592.94;;;0.97;100.00
9289;BME280;4683;50.864;12.086;2022-11-20T11:05:37;98595.84;;;1.13;100.00
9289;BME280;4683;50.864;12.086;2022-11-20T11:08:14;98579.75;;;1.19;100.00
9289;BME280;4683;50.864;12.086;2022-11-20T11:10:47;98584.53;;;1.24;100.00
9289;BME280;4683;50.864;12.086;2022-11-20T11:13:22;98581.06;;;1.04;100.00
9289;BME280;4683;50.864;12.086;2022-11-20T11:15:52;98577.44;;;0.86;100.00
9289;BME280;4683;50.864;12.086;2022-11-20T11:18:27;98578.91;;;1.09;100.00
9289;BME280;4683;50.864;12.086;2022-11-20T11:20:59;98576.59;;;1.25;100.00
9289;BME280;4683;50.864;12.086;2022-11-20T11:23:34;98573.16;;;1.15;100.00
9289;BME280;4683;50.864;12.086;2022-11-20T11:26:07;98579.25;;;0.95;100.00
9289;BME280;4683;50.864;12.086;2022-11-20T11:28:55;98582.94;;;0.92;100.00
9289;BME280;4683;50.864;12.086;2022-11-20T11:31:28;98574.72;;;0.87;100.00
9289;BME280;4683;50.864;12.086;2022-11-20T11:34:06;98573.34;;;1.23;100.00
9289;BME280;4683;50.864;12.086;2022-11-20T11:36:35;98571.16;;;1.48;100.00
9289;BME280;4683;50.864;12.086;2022-11-20T11:39:08;98554.63;;;1.59;100.00
9289;BME280;4683;50.864;12.086;2022-11-20T11:41:39;98566.69;;;1.60;100.00
9289;BME280;4683;50.864;12.086;2022-11-20T11:44:17;98557.25;;;1.68;100.00
9289;BME280;4683;50.864;12.086;2022-11-20T11:47:10;98560.25;;;1.64;100.00
9289;BME280;4683;50.864;12.086;2022-11-20T11:49:39;98559.16;;;1.57;100.00
9289;BME280;4683;50.864;12.086;2022-11-20T11:52:13;98550.94;;;1.42;100.00
9289;BME280;4683;50.864;12.086;2022-11-20T11:54:48;98549.81;;;1.35;100.00
9289;BME280;4683;50.864;12.086;2022-11-20T11:57:38;98541.50;;;1.70;100.00
9289;BME280;4683;50.864;12.086;2022-11-20T12:00:11;98536.25;;;1.99;100.00
9289;BME280;4683;50.864;12.086;2022-11-20T12:02:55;98536.00;;;2.02;100.00
9289;BME280;4683;50.864;12.086;2022-11-20T12:05:32;98535.47;;;1.89;100.00
9289;BME280;4683;50.864;12.086;2022-11-20T12:08:09;98539.31;;;1.85;100.00
9289;BME280;4683;50.864;12.086;2022-11-20T12:10:50;98532.03;;;1.98;100.00
9289;BME280;4683;50.864;12.086;2022-11-20T12:13:37;98521.97;;;2.32;100.00
9289;BME280;4683;50.864;12.086;2022-11-20T12:16:11;98523.06;;;2.29;100.00
9289;BME280;4683;50.864;12.086;2022-11-20T12:18:42;98519.09;;;2.63;100.00
9289;BME280;4683;50.864;12.086;2022-11-20T12:21:19;98522.84;;;2.88;100.00
9289;BME280;4683;50.864;12.086;2022-11-20T12:24:06;98512.66;;;2.94;100.00
9289;BME280;4683;50.864;12.086;2022-11-20T12:26:54;98509.75;;;2.70;100.00
9289;BME280;4683;50.864;12.086;2022-11-20T12:29:40;98509.44;;;1.98;100.00
9289;BME280;4683;50.864;12.086;2022-11-20T12:35:55;98506.47;;;1.74;100.00
9289;BME280;4683;50.864;12.086;2022-11-20T12:38:58;98505.22;;;1.97;100.00
9289;BME280;4683;50.864;12.086;2022-11-20T12:41:47;98510.31;;;1.80;100.00
9289;BME280;4683;50.864;12.086;2022-11-20T12:44:57;98511.41;;;1.67;100.00
9289;BME280;4683;50.864;12.086;2022-11-20T12:48:07;98504.97;;;1.62;100.00
9289;BME280;4683;50.864;12.086;2022-11-20T12:50:50;98512.56;;;2.12;100.00
9289;BME280;4683;50.864;12.086;2022-11-20T12:53:29;98515.72;;;2.15;100.00
9289;BME280;4683;50.864;12.086;2022-11-20T12:56:09;98515.59;;;2.07;100.00
9289;BME280;4683;50.864;12.086;2022-11-20T12:58:51;98510.78;;;2.12;100.00
9289;BME280;4683;50.864;12.086;2022-11-20T13:01:30;98514.91;;;2.52;100.00
9289;BME280;4683;50.864;12.086;2022-11-20T13:04:39;98512.47;;;2.78;100.00
9289;BME280;4683;50.864;12.086;2022-11-20T13:07:15;98518.88;;;2.56;100.00
9289;BME280;4683;50.864;12.086;2022-11-20T13:09:47;98512.53;;;2.68;100.00
9289;BME280;4683;50.864;12.086;2022-11-20T13:12:24;98513.56;;;2.48;100.00
9289;BME280;4683;50.864;12.086;2022-11-20T13:14:57;98515.97;;;2.12;100.00
9289;BME280;4683;50.864;12.086;2022-11-20T13:17:34;98522.56;;;2.07;100.00
9289;BME280;4683;50.864;12.086;2022-11-20T13:20:12;98532.19;;;1.87;100.00
9289;BME280;4683;50.864;12.086;2022-11-20T13:22:48;98527.28;;;1.64;100.00
9289;BME280;4683;50.864;12.086;2022-11-20T13:25:26;98524.00;;;1.62;100.00
9289;BME280;4683;50.864;12.086;2022-11-20T13:27:55;98514.28;;;1.64;100.00
9289;BME280;4683;50.864;12.086;2022-11-20T13:30:25;98517.44;;;1.77;100.00
9289;BME280;4683;50.864;12.086;2022-11-20T13:32:56;98520.97;;;1.57;100.00
9289;BME280;4683;50.864;12.086;2022-11-20T13:35:33;98523.44;;;1.49;100.00
9289;BME280;4683;50.864;12.086;2022-11-20T13:38:09;98527.81;;;1.39;100.00
9289;BME280;4683;50.864;12.086;2022-11-20T13:40:39;98516.34;;;1.41;100.00